sensor_id;sensor_type;location;lat;lon;timestamp;temperature;humidity
37300;DHT22;23184;51.902;12.836;2023-06-19T00:01:43;18.40;99.90
37300;DHT22;23184;51.902;12.836;2023-06-19T00:04:09;18.40;99.90
37300;DHT22;23184;51.902;12.836;2023-06-19T00:06:35;18.30;99.90
37300;DHT22;23184;51.902;12.836;2023-06-19T00:09:00;18.30;99.90
37300;DHT22;23184;51.902;12.836;2023-06-19T00:11:26;18.30;99.90
37300;DHT22;23184;51.902;12.836;2023-06-19T00:13:52;18.30;99.90
37300;DHT22;23184;51.902;12.836;2023-06-19T00:16:17;18.30;99.90
37300;DHT22;23184;51.902;12.836;2023-06-19T00:18:44;18.30;99.90
37300;DHT22;23184;51.902;12.836;2023-06-19T00:21:10;18.40;99.90
37300;DHT22;23184;51.902;12.836;2023-06-19T00:23:35;18.30;99.90
37300;DHT22;23184;51.902;12.836;2023-06-19T00:26:01;18.30;99.90
37300;DHT22;23184;51.902;12.836;2023-06-19T00:28:28;18.30;99.90
37300;DHT22;23184;51.902;12.836;2023-06-19T00:30:54;18.30;99.90
37300;DHT22;23184;51.902;12.836;2023-06-19T00:33:19;18.20;99.90
37300;DHT22;23184;51.902;12.836;2023-06-19T00:35:44;18.20;99.90
37300;DHT22;23184;51.902;12.836;2023-06-19T00:38:10;18.20;99.90
37300;DHT22;23184;51.902;12.836;2023-06-19T00:40:37;18.20;99.90
37300;DHT22;23184;51.902;12.836;2023-06-19T00:43:02;18.20;99.90
37300;DHT22;23184;51.902;12.836;2023-06-19T00:45:28;18.30;99.90
37300;DHT22;23184;51.902;12.836;2023-06-19T00:47:55;18.20;99.90
37300;DHT22;23184;51.902;12.836;2023-06-19T00:50:24;18.20;99.90
37300;DHT22;23184;51.902;12.836;2023-06-19T00:52:50;18.20;99.90
37300;DHT22;23184;51.902;12.836;2023-06-19T00:55:16;18.20;99.90
37300;DHT22;23184;51.902;12.836;2023-06-19T00:57:42;18.30;99.90
37300;DHT22;23184;51.902;12.836;2023-06-19T01:00:09;18.20;99.90
37300;DHT22;23184;51.902;12.836;2023-06-19T01:02:36;18.30;99.90
37300;DHT22;23184;51.902;12.836;2023-06-19T01:05:02;18.30;99.90
37300;DHT22;23184;51.902;12.836;2023-06-19T01:10:24;18.30;99.90
37300;DHT22;23184;51.902;12.836;2023-06-19T01:13:02;18.30;99.90
37300;DHT22;23184;51.902;12.836;2023-06-19T01:15:31;18.20;99.90
37300;DHT22;23184;51.902;12.836;2023-06-19T01:17:58;18.20;99.90
37300;DHT22;23184;51.902;12.836;2023-06-19T01:20:25;18.30;99.90
37300;DHT22;23184;51.902;12.836;2023-06-19T01:22:51;18.30;99.90
37300;DHT22;23184;51.902;12.836;2023-06-19T01:25:16;18.20;99.90
37300;DHT22;23184;51.902;12.836;2023-06-19T01:27:42;18.20;99.90
37300;DHT22;23184;51.902;12.836;2023-06-19T01:30:09;18.20;99.90
37300;DHT22;23184;51.902;12.836;2023-06-19T01:32:58;18.20;99.90
37300;DHT22;23184;51.902;12.836;2023-06-19T01:35:28;18.20;99.90
37300;DHT22;23184;51.902;12.836;2023-06-19T01:37:55;18.20;99.90
37300;DHT22;23184;51.902;12.836;2023-06-19T01:40:21;18.20;99.90
37300;DHT22;23184;51.902;12.836;2023-06-19T01:42:52;18.20;99.90
37300;DHT22;23184;51.902;12.836;2023-06-19T01:45:18;18.30;99.90
37300;DHT22;23184;51.902;12.836;2023-06-19T01:47:44;18.20;99.90
37300;DHT22;23184;51.902;12.836;2023-06-19T01:50:10;18.30;99.90
37300;DHT22;23184;51.902;12.836;2023-06-19T01:52:37;18.30;99.90
37300;DHT22;23184;51.902;12.836;2023-06-19T01:55:02;18.30;99.90
37300;DHT22;23184;51.902;12.836;2023-06-19T01:57:28;18.30;99.90
37300;DHT22;23184;51.902;12.836;2023-06-19T01:59:54;18.40;99.90
37300;DHT22;23184;51.902;12.836;2023-06-19T02:02:19;18.40;99.90
37300;DHT22;23184;51.902;12.836;2023-06-19T02:04:45;18.40;99.90
37300;DHT22;23184;51.902;12.836;2023-06-19T02:07:10;18.40;99.90
37300;DHT22;23184;51.902;12.836;2023-06-19T02:09:37;18.40;99.90
37300;DHT22;23184;51.902;12.836;2023-06-19T02:12:03;18.40;99.90
37300;DHT22;23184;51.902;12.836;2023-06-19T02:14:29;18.40;99.90
37300;DHT22;23184;51.902;12.836;2023-06-19T02:16:54;18.30;99.90
37300;DHT22;23184;51.902;12.836;2023-06-19T02:19:20;18.20;99.90
37300;DHT22;23184;51.902;12.836;2023-06-19T02:21:45;18.10;99.90
37300;DHT22;23184;51.902;12.836;2023-06-19T02:24:11;18.00;99.90
37300;DHT22;23184;51.902;12.836;2023-06-19T02:26:36;18.00;99.90
37300;DHT22;23184;51.902;12.836;2023-06-19T02:29:02;18.00;99.90
37300;DHT22;23184;51.902;12.836;2023-06-19T02:31:27;18.00;99.90
37300;DHT22;23184;51.902;12.836;2023-06-19T02:33:52;18.00;99.90
37300;DHT22;23184;51.902;12.836;2023-06-19T02:36:18;18.00;99.90
37300;DHT22;23184;51.902;12.836;2023-06-19T02:38:47;18.00;99.90
37300;DHT22;23184;51.902;12.836;2023-06-19T02:41:13;18.00;99.90
37300;DHT22;23184;51.902;12.836;2023-06-19T02:43:42;18.10;99.90
37300;DHT22;23184;51.902;12.836;2023-06-19T02:46:07;18.10;99.90
37300;DHT22;23184;51.902;12.836;2023-06-19T02:48:33;18.10;99.90
37300;DHT22;23184;51.902;12.836;2023-06-19T02:50:59;18.20;99.90
37300;DHT22;23184;51.902;12.836;2023-06-19T02:53:24;18.20;99.90
37300;DHT22;23184;51.902;12.836;2023-06-19T02:55:50;18.20;99.90
37300;DHT22;23184;51.902;12.836;2023-06-19T02:58:15;18.20;99.90
37300;DHT22;23184;51.902;12.836;2023-06-19T03:00:40;18.20;99.90
37300;DHT22;23184;51.902;12.836;2023-06-19T03:03:06;18.20;99.90
37300;DHT22;23184;51.902;12.836;2023-06-19T03:05:31;18.20;99.90
37300;DHT22;23184;51.902;12.836;2023-06-19T03:07:57;18.20;99.90
37300;DHT22;23184;51.902;12.836;2023-06-19T03:10:22;18.20;99.90
37300;DHT22;23184;51.902;12.836;2023-06-19T03:12:48;18.20;99.90
37300;DHT22;23184;51.902;12.836;2023-06-19T03:15:13;18.20;99.90
37300;DHT22;23184;51.902;12.836;2023-06-19T03:17:39;18.20;99.90
37300;DHT22;23184;51.902;12.836;2023-06-19T03:20:05;18.20;99.90
37300;DHT22;23184;51.902;12.836;2023-06-19T03:22:31;18.20;99.90
37300;DHT22;23184;51.902;12.836;2023-06-19T03:24:57;18.20;99.90
37300;DHT22;23184;51.902;12.836;2023-06-19T03:27:22;18.20;99.90
37300;DHT22;23184;51.902;12.836;2023-06-19T03:29:48;18.20;99.90
37300;DHT22;23184;51.902;12.836;2023-06-19T03:32:13;18.20;99.90
37300;DHT22;23184;51.902;12.836;2023-06-19T03:34:39;18.20;99.90
37300;DHT22;23184;51.902;12.836;2023-06-19T03:37:04;18.20;99.90
37300;DHT22;23184;51.902;12.836;2023-06-19T03:39:30;18.30;99.90
37300;DHT22;23184;51.902;12.836;2023-06-19T03:41:55;18.30;99.90
37300;DHT22;23184;51.902;12.836;2023-06-19T03:44:21;18.30;99.90
37300;DHT22;23184;51.902;12.836;2023-06-19T03:46:46;18.30;99.90
37300;DHT22;23184;51.902;12.836;2023-06-19T03:49:12;18.30;99.90
37300;DHT22;23184;51.902;12.836;2023-06-19T03:51:38;18.40;99.90
37300;DHT22;23184;51.902;12.836;2023-06-19T03:54:04;18.40;99.90
37300;DHT22;23184;51.902;12.836;2023-06-19T03:56:29;18.40;99.90
37300;DHT22;23184;51.902;12.836;2023-06-19T03:58:55;18.40;99.90
37300;DHT22;23184;51.902;12.836;2023-06-19T04:01:20;18.50;99.90
37300;DHT22;23184;51.902;12.836;2023-06-19T04:03:45;18.50;99.90
37300;DHT22;23184;51.902;12.836;2023-06-19T04:06:11;18.50;99.90
37300;DHT22;23184;51.902;12.836;2023-06-19T04:08:36;18.50;99.90
37300;DHT22;23184;51.902;12.836;2023-06-19T04:11:02;18.50;99.90
37300;DHT22;23184;51.902;12.836;2023-06-19T04:13:27;18.60;99.90
37300;DHT22;23184;51.902;12.836;2023-06-19T04:15:53;18.60;99.90
37300;DHT22;23184;51.902;12.836;2023-06-19T04:18:18;18.60;99.90
37300;DHT22;23184;51.902;12.836;2023-06-19T04:20:44;18.70;99.90
37300;DHT22;23184;51.902;12.836;2023-06-19T04:23:09;18.70;99.90
37300;DHT22;23184;51.902;12.836;2023-06-19T04:25:35;18.70;99.90
37300;DHT22;23184;51.902;12.836;2023-06-19T04:28:00;18.80;99.90
37300;DHT22;23184;51.902;12.836;2023-06-19T04:30:29;18.80;99.90
37300;DHT22;23184;51.902;12.836;2023-06-19T04:32:54;18.80;99.90
37300;DHT22;23184;51.902;12.836;2023-06-19T04:35:20;18.90;99.90
37300;DHT22;23184;51.902;12.836;2023-06-19T04:37:45;18.90;99.90
37300;DHT22;23184;51.902;12.836;2023-06-19T04:40:14;18.90;99.90
37300;DHT22;23184;51.902;12.836;2023-06-19T04:42:39;18.90;99.90
37300;DHT22;23184;51.902;12.836;2023-06-19T04:45:05;18.90;99.90
37300;DHT22;23184;51.902;12.836;2023-06-19T04:47:33;18.90;99.90
37300;DHT22;23184;51.902;12.836;2023-06-19T04:49:59;18.90;99.90
37300;DHT22;23184;51.902;12.836;2023-06-19T04:52:25;19.00;99.90
37300;DHT22;23184;51.902;12.836;2023-06-19T04:54:51;19.00;99.90
37300;DHT22;23184;51.902;12.836;2023-06-19T04:57:16;19.00;99.90
37300;DHT22;23184;51.902;12.836;2023-06-19T04:59:43;19.10;99.90
37300;DHT22;23184;51.902;12.836;2023-06-19T05:02:11;19.20;99.90
37300;DHT22;23184;51.902;12.836;2023-06-19T05:04:37;19.30;99.90
37300;DHT22;23184;51.902;12.836;2023-06-19T05:07:02;19.30;99.90
37300;DHT22;23184;51.902;12.836;2023-06-19T05:09:28;19.30;99.90
37300;DHT22;23184;51.902;12.836;2023-06-19T05:11:54;19.40;99.90
37300;DHT22;23184;51.902;12.836;2023-06-19T05:14:19;19.50;99.90
37300;DHT22;23184;51.902;12.836;2023-06-19T05:16:45;19.40;99.90
37300;DHT22;23184;51.902;12.836;2023-06-19T05:19:10;19.50;99.90
37300;DHT22;23184;51.902;12.836;2023-06-19T05:21:36;19.40;99.90
37300;DHT22;23184;51.902;12.836;2023-06-19T05:24:02;19.40;99.90
37300;DHT22;23184;51.902;12.836;2023-06-19T05:26:27;19.40;99.90
37300;DHT22;23184;51.902;12.836;2023-06-19T05:28:53;19.40;99.90
37300;DHT22;23184;51.902;12.836;2023-06-19T05:31:18;19.40;99.90
37300;DHT22;23184;51.902;12.836;2023-06-19T05:33:44;19.50;99.90
37300;DHT22;23184;51.902;12.836;2023-06-19T05:36:10;19.50;99.90
37300;DHT22;23184;51.902;12.836;2023-06-19T05:38:36;19.50;99.90
37300;DHT22;23184;51.902;12.836;2023-06-19T05:41:02;19.50;99.90
37300;DHT22;23184;51.902;12.836;2023-06-19T05:43:28;19.50;99.90
37300;DHT22;23184;51.902;12.836;2023-06-19T05:45:54;19.50;99.90
37300;DHT22;23184;51.902;12.836;2023-06-19T05:48:21;19.50;99.90
37300;DHT22;23184;51.902;12.836;2023-06-19T05:50:47;19.50;99.90
37300;DHT22;23184;51.902;12.836;2023-06-19T05:53:12;19.50;99.90
37300;DHT22;23184;51.902;12.836;2023-06-19T05:55:38;19.60;99.90
37300;DHT22;23184;51.902;12.836;2023-06-19T05:58:03;19.60;99.90
37300;DHT22;23184;51.902;12.836;2023-06-19T06:00:29;19.60;99.90
37300;DHT22;23184;51.902;12.836;2023-06-19T06:02:56;19.70;99.90
37300;DHT22;23184;51.902;12.836;2023-06-19T06:05:25;19.80;99.90
37300;DHT22;23184;51.902;12.836;2023-06-19T06:07:50;19.80;99.90
37300;DHT22;23184;51.902;12.836;2023-06-19T06:10:16;19.90;99.90
37300;DHT22;23184;51.902;12.836;2023-06-19T06:12:42;19.90;99.90
37300;DHT22;23184;51.902;12.836;2023-06-19T06:15:08;20.00;99.90
37300;DHT22;23184;51.902;12.836;2023-06-19T06:17:33;20.00;99.90
37300;DHT22;23184;51.902;12.836;2023-06-19T06:19:59;20.10;99.90
37300;DHT22;23184;51.902;12.836;2023-06-19T06:22:24;20.20;99.90
37300;DHT22;23184;51.902;12.836;2023-06-19T06:24:50;20.20;99.90
37300;DHT22;23184;51.902;12.836;2023-06-19T06:27:15;20.30;99.90
37300;DHT22;23184;51.902;12.836;2023-06-19T06:29:41;20.30;99.90
37300;DHT22;23184;51.902;12.836;2023-06-19T06:32:07;20.40;99.90
37300;DHT22;23184;51.902;12.836;2023-06-19T06:34:33;20.30;99.90
37300;DHT22;23184;51.902;12.836;2023-06-19T06:37:00;20.40;99.90
37300;DHT22;23184;51.902;12.836;2023-06-19T06:39:25;20.40;99.90
37300;DHT22;23184;51.902;12.836;2023-06-19T06:41:51;20.50;99.90
37300;DHT22;23184;51.902;12.836;2023-06-19T06:44:17;20.60;99.90
37300;DHT22;23184;51.902;12.836;2023-06-19T06:46:42;20.70;99.90
37300;DHT22;23184;51.902;12.836;2023-06-19T06:49:08;20.70;99.90
37300;DHT22;23184;51.902;12.836;2023-06-19T06:51:33;20.70;99.90
37300;DHT22;23184;51.902;12.836;2023-06-19T06:53:59;20.80;99.90
37300;DHT22;23184;51.902;12.836;2023-06-19T06:56:24;20.90;99.90
37300;DHT22;23184;51.902;12.836;2023-06-19T06:58:50;21.00;99.90
37300;DHT22;23184;51.902;12.836;2023-06-19T07:01:15;21.00;99.90
37300;DHT22;23184;51.902;12.836;2023-06-19T07:03:41;21.00;99.90
37300;DHT22;23184;51.902;12.836;2023-06-19T07:06:07;21.10;99.90
37300;DHT22;23184;51.902;12.836;2023-06-19T07:08:32;21.20;99.90
37300;DHT22;23184;51.902;12.836;2023-06-19T07:10:58;21.40;99.90
37300;DHT22;23184;51.902;12.836;2023-06-19T07:13:24;21.50;99.90
37300;DHT22;23184;51.902;12.836;2023-06-19T07:15:49;21.60;99.90
37300;DHT22;23184;51.902;12.836;2023-06-19T07:18:15;21.80;99.90
37300;DHT22;23184;51.902;12.836;2023-06-19T07:20:40;21.80;99.90
37300;DHT22;23184;51.902;12.836;2023-06-19T07:23:06;21.90;99.90
37300;DHT22;23184;51.902;12.836;2023-06-19T07:25:31;22.10;99.90
37300;DHT22;23184;51.902;12.836;2023-06-19T07:27:59;22.00;99.90
37300;DHT22;23184;51.902;12.836;2023-06-19T07:30:26;22.20;99.90
37300;DHT22;23184;51.902;12.836;2023-06-19T07:32:51;22.20;99.90
37300;DHT22;23184;51.902;12.836;2023-06-19T07:35:17;22.30;99.90
37300;DHT22;23184;51.902;12.836;2023-06-19T07:37:42;22.40;99.90
37300;DHT22;23184;51.902;12.836;2023-06-19T07:40:08;22.30;99.90
37300;DHT22;23184;51.902;12.836;2023-06-19T07:42:35;22.30;99.90
37300;DHT22;23184;51.902;12.836;2023-06-19T07:45:00;22.20;99.90
37300;DHT22;23184;51.902;12.836;2023-06-19T07:47:26;22.10;99.90
37300;DHT22;23184;51.902;12.836;2023-06-19T07:49:52;22.10;99.90
37300;DHT22;23184;51.902;12.836;2023-06-19T07:52:17;22.10;99.90
37300;DHT22;23184;51.902;12.836;2023-06-19T07:54:56;22.20;99.90
37300;DHT22;23184;51.902;12.836;2023-06-19T07:57:23;22.20;99.90
37300;DHT22;23184;51.902;12.836;2023-06-19T07:59:49;22.20;99.90
37300;DHT22;23184;51.902;12.836;2023-06-19T08:02:15;22.30;99.90
37300;DHT22;23184;51.902;12.836;2023-06-19T08:04:40;22.30;99.90
37300;DHT22;23184;51.902;12.836;2023-06-19T08:07:06;22.30;99.90
37300;DHT22;23184;51.902;12.836;2023-06-19T08:09:32;22.40;99.90
37300;DHT22;23184;51.902;12.836;2023-06-19T08:11:57;22.30;99.90
37300;DHT22;23184;51.902;12.836;2023-06-19T08:14:23;22.30;99.90
37300;DHT22;23184;51.902;12.836;2023-06-19T08:16:48;22.30;99.90
37300;DHT22;23184;51.902;12.836;2023-06-19T08:19:14;22.20;99.90
37300;DHT22;23184;51.902;12.836;2023-06-19T08:21:39;22.20;99.90
37300;DHT22;23184;51.902;12.836;2023-06-19T08:24:05;22.20;99.90
37300;DHT22;23184;51.902;12.836;2023-06-19T08:26:31;22.10;99.90
37300;DHT22;23184;51.902;12.836;2023-06-19T08:28:56;22.10;99.90
37300;DHT22;23184;51.902;12.836;2023-06-19T08:31:22;22.00;99.90
37300;DHT22;23184;51.902;12.836;2023-06-19T08:33:53;22.00;99.90
37300;DHT22;23184;51.902;12.836;2023-06-19T08:36:18;22.00;99.90
37300;DHT22;23184;51.902;12.836;2023-06-19T08:38:44;22.00;99.90
37300;DHT22;23184;51.902;12.836;2023-06-19T08:41:10;21.90;99.90
37300;DHT22;23184;51.902;12.836;2023-06-19T08:43:35;21.70;99.90
37300;DHT22;23184;51.902;12.836;2023-06-19T08:46:09;21.50;99.90
37300;DHT22;23184;51.902;12.836;2023-06-19T08:48:36;21.20;99.90
37300;DHT22;23184;51.902;12.836;2023-06-19T08:51:03;21.10;99.90
37300;DHT22;23184;51.902;12.836;2023-06-19T08:53:32;20.90;99.90
37300;DHT22;23184;51.902;12.836;2023-06-19T08:55:57;20.80;99.90
37300;DHT22;23184;51.902;12.836;2023-06-19T08:58:23;20.90;99.90
37300;DHT22;23184;51.902;12.836;2023-06-19T09:00:49;20.90;99.90
37300;DHT22;23184;51.902;12.836;2023-06-19T09:03:19;20.90;99.90
37300;DHT22;23184;51.902;12.836;2023-06-19T09:05:46;21.10;99.90
37300;DHT22;23184;51.902;12.836;2023-06-19T09:08:15;21.20;99.90
37300;DHT22;23184;51.902;12.836;2023-06-19T09:11:03;21.40;99.90
37300;DHT22;23184;51.902;12.836;2023-06-19T09:13:29;21.40;99.90
37300;DHT22;23184;51.902;12.836;2023-06-19T09:16:03;21.60;99.90
37300;DHT22;23184;51.902;12.836;2023-06-19T09:18:31;21.60;99.90
37300;DHT22;23184;51.902;12.836;2023-06-19T09:20:57;21.60;99.90
37300;DHT22;23184;51.902;12.836;2023-06-19T09:23:24;21.70;99.90
37300;DHT22;23184;51.902;12.836;2023-06-19T09:25:51;21.80;99.90
37300;DHT22;23184;51.902;12.836;2023-06-19T09:28:25;21.90;99.90
37300;DHT22;23184;51.902;12.836;2023-06-19T09:30:59;22.10;99.90
37300;DHT22;23184;51.902;12.836;2023-06-19T09:33:26;22.30;99.90
37300;DHT22;23184;51.902;12.836;2023-06-19T09:35:54;22.50;99.90
37300;DHT22;23184;51.902;12.836;2023-06-19T09:38:24;22.70;99.90
37300;DHT22;23184;51.902;12.836;2023-06-19T09:40:51;23.10;99.90
37300;DHT22;23184;51.902;12.836;2023-06-19T09:43:22;23.50;99.90
37300;DHT22;23184;51.902;12.836;2023-06-19T09:45:49;23.70;99.90
37300;DHT22;23184;51.902;12.836;2023-06-19T09:48:19;24.30;99.90
37300;DHT22;23184;51.902;12.836;2023-06-19T09:50:50;24.70;99.90
37300;DHT22;23184;51.902;12.836;2023-06-19T09:53:18;24.90;99.90
37300;DHT22;23184;51.902;12.836;2023-06-19T09:55:46;24.70;99.90
37300;DHT22;23184;51.902;12.836;2023-06-19T09:58:13;24.80;99.90
37300;DHT22;23184;51.902;12.836;2023-06-19T10:00:39;25.00;99.90
37300;DHT22;23184;51.902;12.836;2023-06-19T10:03:11;25.00;99.90
37300;DHT22;23184;51.902;12.836;2023-06-19T10:05:37;25.00;99.90
37300;DHT22;23184;51.902;12.836;2023-06-19T10:08:03;25.00;99.90
37300;DHT22;23184;51.902;12.836;2023-06-19T10:10:30;25.00;99.90
37300;DHT22;23184;51.902;12.836;2023-06-19T10:12:58;25.70;99.90
37300;DHT22;23184;51.902;12.836;2023-06-19T10:15:28;26.20;99.90
37300;DHT22;23184;51.902;12.836;2023-06-19T10:18:02;26.80;99.90
37300;DHT22;23184;51.902;12.836;2023-06-19T10:20:30;27.40;99.90
37300;DHT22;23184;51.902;12.836;2023-06-19T10:25:32;28.40;99.90
37300;DHT22;23184;51.902;12.836;2023-06-19T10:27:59;28.90;99.90
37300;DHT22;23184;51.902;12.836;2023-06-19T10:30:26;29.40;97.60
37300;DHT22;23184;51.902;12.836;2023-06-19T10:32:51;29.20;96.10
37300;DHT22;23184;51.902;12.836;2023-06-19T10:35:18;28.80;95.40
37300;DHT22;23184;51.902;12.836;2023-06-19T10:37:46;29.00;94.80
37300;DHT22;23184;51.902;12.836;2023-06-19T10:40:13;29.10;95.80
37300;DHT22;23184;51.902;12.836;2023-06-19T10:42:42;29.20;92.40
37300;DHT22;23184;51.902;12.836;2023-06-19T10:45:10;29.50;91.40
37300;DHT22;23184;51.902;12.836;2023-06-19T10:47:38;29.50;90.20
37300;DHT22;23184;51.902;12.836;2023-06-19T10:50:09;29.90;89.90
37300;DHT22;23184;51.902;12.836;2023-06-19T10:52:35;30.10;88.50
37300;DHT22;23184;51.902;12.836;2023-06-19T10:55:00;30.00;85.20
37300;DHT22;23184;51.902;12.836;2023-06-19T10:57:29;30.10;84.70
37300;DHT22;23184;51.902;12.836;2023-06-19T10:59:55;29.50;83.80
37300;DHT22;23184;51.902;12.836;2023-06-19T11:02:21;29.20;82.00
37300;DHT22;23184;51.902;12.836;2023-06-19T11:04:47;29.60;81.50
37300;DHT22;23184;51.902;12.836;2023-06-19T11:07:12;30.30;80.20
37300;DHT22;23184;51.902;12.836;2023-06-19T11:09:38;30.70;77.00
37300;DHT22;23184;51.902;12.836;2023-06-19T11:12:04;31.50;76.00
37300;DHT22;23184;51.902;12.836;2023-06-19T11:14:33;32.80;72.50
37300;DHT22;23184;51.902;12.836;2023-06-19T11:17:05;34.10;67.80
37300;DHT22;23184;51.902;12.836;2023-06-19T11:19:31;35.30;64.30
37300;DHT22;23184;51.902;12.836;2023-06-19T11:21:58;35.80;60.80
37300;DHT22;23184;51.902;12.836;2023-06-19T11:24:26;35.80;58.20
37300;DHT22;23184;51.902;12.836;2023-06-19T11:26:52;36.20;57.30
37300;DHT22;23184;51.902;12.836;2023-06-19T11:29:20;35.80;53.80
37300;DHT22;23184;51.902;12.836;2023-06-19T11:31:46;35.20;54.50
37300;DHT22;23184;51.902;12.836;2023-06-19T11:34:13;35.70;55.30
37300;DHT22;23184;51.902;12.836;2023-06-19T11:36:40;35.40;54.00
37300;DHT22;23184;51.902;12.836;2023-06-19T11:39:11;34.60;54.70
37300;DHT22;23184;51.902;12.836;2023-06-19T11:41:37;35.80;54.70
37300;DHT22;23184;51.902;12.836;2023-06-19T11:44:07;36.20;53.70
37300;DHT22;23184;51.902;12.836;2023-06-19T11:46:36;34.90;51.90
37300;DHT22;23184;51.902;12.836;2023-06-19T11:49:17;34.60;52.90
37300;DHT22;23184;51.902;12.836;2023-06-19T11:51:46;33.50;52.80
37300;DHT22;23184;51.902;12.836;2023-06-19T11:54:12;31.40;55.90
37300;DHT22;23184;51.902;12.836;2023-06-19T11:56:40;31.20;58.40
37300;DHT22;23184;51.902;12.836;2023-06-19T11:59:06;30.60;60.90
37300;DHT22;23184;51.902;12.836;2023-06-19T12:01:32;30.20;62.80
37300;DHT22;23184;51.902;12.836;2023-06-19T12:03:58;30.20;62.70
37300;DHT22;23184;51.902;12.836;2023-06-19T12:06:24;30.50;62.90
37300;DHT22;23184;51.902;12.836;2023-06-19T12:08:50;30.50;63.10
37300;DHT22;23184;51.902;12.836;2023-06-19T12:11:15;30.60;64.40
37300;DHT22;23184;51.902;12.836;2023-06-19T12:13:41;30.20;62.80
37300;DHT22;23184;51.902;12.836;2023-06-19T12:16:10;29.90;64.30
37300;DHT22;23184;51.902;12.836;2023-06-19T12:18:36;30.10;64.90
37300;DHT22;23184;51.902;12.836;2023-06-19T12:21:02;30.40;64.20
37300;DHT22;23184;51.902;12.836;2023-06-19T12:23:28;31.40;63.30
37300;DHT22;23184;51.902;12.836;2023-06-19T12:25:53;32.00;60.10
37300;DHT22;23184;51.902;12.836;2023-06-19T12:28:18;32.00;60.60
37300;DHT22;23184;51.902;12.836;2023-06-19T12:30:45;31.80;59.10
37300;DHT22;23184;51.902;12.836;2023-06-19T12:33:10;31.80;59.70
37300;DHT22;23184;51.902;12.836;2023-06-19T12:35:40;32.00;59.90
37300;DHT22;23184;51.902;12.836;2023-06-19T12:38:09;31.80;58.50
37300;DHT22;23184;51.902;12.836;2023-06-19T12:40:36;31.70;58.40
37300;DHT22;23184;51.902;12.836;2023-06-19T12:43:01;32.20;58.90
37300;DHT22;23184;51.902;12.836;2023-06-19T12:45:27;32.20;58.40
37300;DHT22;23184;51.902;12.836;2023-06-19T12:47:52;32.50;57.90
37300;DHT22;23184;51.902;12.836;2023-06-19T12:50:18;32.10;57.40
37300;DHT22;23184;51.902;12.836;2023-06-19T12:52:43;32.20;57.60
37300;DHT22;23184;51.902;12.836;2023-06-19T12:55:09;32.40;58.50
37300;DHT22;23184;51.902;12.836;2023-06-19T12:57:34;32.30;57.80
37300;DHT22;23184;51.902;12.836;2023-06-19T13:00:00;32.30;58.10
37300;DHT22;23184;51.902;12.836;2023-06-19T13:02:25;32.10;57.80
37300;DHT22;23184;51.902;12.836;2023-06-19T13:04:52;32.00;58.10
37300;DHT22;23184;51.902;12.836;2023-06-19T13:07:17;32.20;58.70
37300;DHT22;23184;51.902;12.836;2023-06-19T13:09:42;31.90;58.10
37300;DHT22;23184;51.902;12.836;2023-06-19T13:12:08;31.70;58.80
37300;DHT22;23184;51.902;12.836;2023-06-19T13:14:34;31.00;59.70
37300;DHT22;23184;51.902;12.836;2023-06-19T13:17:00;30.70;60.90
37300;DHT22;23184;51.902;12.836;2023-06-19T13:19:26;30.20;60.80
37300;DHT22;23184;51.902;12.836;2023-06-19T13:21:52;30.30;62.40
37300;DHT22;23184;51.902;12.836;2023-06-19T13:24:17;30.30;62.10
37300;DHT22;23184;51.902;12.836;2023-06-19T13:26:43;30.10;62.00
37300;DHT22;23184;51.902;12.836;2023-06-19T13:29:11;30.20;63.00
37300;DHT22;23184;51.902;12.836;2023-06-19T13:31:36;30.70;61.50
37300;DHT22;23184;51.902;12.836;2023-06-19T13:34:02;31.30;60.80
37300;DHT22;23184;51.902;12.836;2023-06-19T13:36:28;31.50;61.00
37300;DHT22;23184;51.902;12.836;2023-06-19T13:38:53;31.10;61.20
37300;DHT22;23184;51.902;12.836;2023-06-19T13:41:19;31.00;61.60
37300;DHT22;23184;51.902;12.836;2023-06-19T13:43:44;31.40;62.40
37300;DHT22;23184;51.902;12.836;2023-06-19T13:46:13;31.60;62.20
37300;DHT22;23184;51.902;12.836;2023-06-19T13:48:38;32.50;59.80
37300;DHT22;23184;51.902;12.836;2023-06-19T13:51:04;32.90;58.60
37300;DHT22;23184;51.902;12.836;2023-06-19T13:53:30;33.60;58.00
37300;DHT22;23184;51.902;12.836;2023-06-19T13:55:55;34.20;57.30
37300;DHT22;23184;51.902;12.836;2023-06-19T13:58:21;34.40;56.70
37300;DHT22;23184;51.902;12.836;2023-06-19T14:00:46;34.80;57.30
37300;DHT22;23184;51.902;12.836;2023-06-19T14:03:13;34.80;56.60
37300;DHT22;23184;51.902;12.836;2023-06-19T14:05:38;34.90;56.20
37300;DHT22;23184;51.902;12.836;2023-06-19T14:08:04;34.30;55.80
37300;DHT22;23184;51.902;12.836;2023-06-19T14:10:30;34.20;56.80
37300;DHT22;23184;51.902;12.836;2023-06-19T14:12:56;34.00;57.90
37300;DHT22;23184;51.902;12.836;2023-06-19T14:15:21;34.10;56.80
37300;DHT22;23184;51.902;12.836;2023-06-19T14:17:47;34.10;56.20
37300;DHT22;23184;51.902;12.836;2023-06-19T14:20:12;34.10;56.50
37300;DHT22;23184;51.902;12.836;2023-06-19T14:22:38;33.10;55.70
37300;DHT22;23184;51.902;12.836;2023-06-19T14:25:04;32.80;57.20
37300;DHT22;23184;51.902;12.836;2023-06-19T14:27:29;32.80;57.80
37300;DHT22;23184;51.902;12.836;2023-06-19T14:29:55;32.70;57.60
37300;DHT22;23184;51.902;12.836;2023-06-19T14:32:22;32.20;57.80
37300;DHT22;23184;51.902;12.836;2023-06-19T14:34:48;31.10;59.70
37300;DHT22;23184;51.902;12.836;2023-06-19T14:37:14;31.10;60.60
37300;DHT22;23184;51.902;12.836;2023-06-19T14:39:39;30.70;61.30
37300;DHT22;23184;51.902;12.836;2023-06-19T14:42:05;30.60;62.20
37300;DHT22;23184;51.902;12.836;2023-06-19T14:44:31;30.50;62.50
37300;DHT22;23184;51.902;12.836;2023-06-19T14:46:58;30.40;62.80
37300;DHT22;23184;51.902;12.836;2023-06-19T14:49:23;30.60;62.70
37300;DHT22;23184;51.902;12.836;2023-06-19T14:51:49;30.80;62.90
37300;DHT22;23184;51.902;12.836;2023-06-19T14:54:14;31.20;63.10
37300;DHT22;23184;51.902;12.836;2023-06-19T14:56:43;31.40;62.20
37300;DHT22;23184;51.902;12.836;2023-06-19T14:59:09;31.30;62.40
37300;DHT22;23184;51.902;12.836;2023-06-19T15:01:35;31.20;63.10
37300;DHT22;23184;51.902;12.836;2023-06-19T15:04:00;31.10;62.70
37300;DHT22;23184;51.902;12.836;2023-06-19T15:06:26;30.90;63.50
37300;DHT22;23184;51.902;12.836;2023-06-19T15:08:51;30.50;63.00
37300;DHT22;23184;51.902;12.836;2023-06-19T15:11:17;30.60;64.10
37300;DHT22;23184;51.902;12.836;2023-06-19T15:13:43;30.70;62.80
37300;DHT22;23184;51.902;12.836;2023-06-19T15:16:08;30.90;63.50